sensor_id;sensor_type;location;lat;lon;timestamp;P1;durP1;ratioP1;P2;durP2;ratioP2
8650;SDS011;4363;52.346;14.516;2022-09-09T00:04:42;276.80;;;152.60;;
8650;SDS011;4363;52.346;14.516;2022-09-09T00:09:45;265.27;;;143.97;;
8650;SDS011;4363;52.346;14.516;2022-09-09T00:12:19;275.80;;;149.23;;
8650;SDS011;4363;52.346;14.516;2022-09-09T00:14:54;238.68;;;136.65;;
8650;SDS011;4363;52.346;14.516;2022-09-09T00:19:57;247.73;;;140.03;;
8650;SDS011;4363;52.346;14.516;2022-09-09T00:22:25;265.40;;;144.03;;
8650;SDS011;4363;52.346;14.516;2022-09-09T00:25:00;252.25;;;142.38;;
8650;SDS011;4363;52.346;14.516;2022-09-09T00:30:11;262.67;;;145.07;;
8650;SDS011;4363;52.346;14.516;2022-09-09T00:32:38;228.63;;;129.87;;
8650;SDS011;4363;52.346;14.516;2022-09-09T00:35:14;249.13;;;139.80;;
8650;SDS011;4363;52.346;14.516;2022-09-09T00:37:43;258.27;;;141.67;;
8650;SDS011;4363;52.346;14.516;2022-09-09T00:40:18;298.50;;;151.73;;
8650;SDS011;4363;52.346;14.516;2022-09-09T00:42:47;265.03;;;145.57;;
8650;SDS011;4363;52.346;14.516;2022-09-09T00:47:52;268.60;;;145.70;;
8650;SDS011;4363;52.346;14.516;2022-09-09T00:53:07;247.57;;;138.77;;
8650;SDS011;4363;52.346;14.516;2022-09-09T00:55:44;305.80;;;161.57;;
8650;SDS011;4363;52.346;14.516;2022-09-09T00:58:10;279.03;;;148.47;;
8650;SDS011;4363;52.346;14.516;2022-09-09T01:00:49;249.70;;;140.70;;
8650;SDS011;4363;52.346;14.516;2022-09-09T01:03:21;310.87;;;161.77;;
8650;SDS011;4363;52.346;14.516;2022-09-09T01:05:51;278.67;;;148.27;;
8650;SDS011;4363;52.346;14.516;2022-09-09T01:08:26;292.33;;;156.03;;
8650;SDS011;4363;52.346;14.516;2022-09-09T01:10:53;240.45;;;136.65;;
8650;SDS011;4363;52.346;14.516;2022-09-09T01:13:22;260.77;;;141.93;;
8650;SDS011;4363;52.346;14.516;2022-09-09T01:15:49;291.37;;;155.23;;
8650;SDS011;4363;52.346;14.516;2022-09-09T01:18:18;386.40;;;191.93;;
8650;SDS011;4363;52.346;14.516;2022-09-09T01:28:26;225.10;;;129.57;;
8650;SDS011;4363;52.346;14.516;2022-09-09T01:30:52;234.00;;;132.07;;
8650;SDS011;4363;52.346;14.516;2022-09-09T01:33:18;304.47;;;160.97;;
8650;SDS011;4363;52.346;14.516;2022-09-09T01:35:55;298.50;;;158.73;;
8650;SDS011;4363;52.346;14.516;2022-09-09T01:38:24;249.87;;;137.73;;
8650;SDS011;4363;52.346;14.516;2022-09-09T01:40:50;221.10;;;127.03;;
8650;SDS011;4363;52.346;14.516;2022-09-09T01:43:21;223.13;;;130.00;;
8650;SDS011;4363;52.346;14.516;2022-09-09T01:45:47;229.67;;;130.20;;
8650;SDS011;4363;52.346;14.516;2022-09-09T01:48:15;286.13;;;146.27;;
8650;SDS011;4363;52.346;14.516;2022-09-09T01:50:41;251.33;;;138.90;;
8650;SDS011;4363;52.346;14.516;2022-09-09T01:53:07;260.87;;;139.00;;
8650;SDS011;4363;52.346;14.516;2022-09-09T01:55:37;285.37;;;151.53;;
8650;SDS011;4363;52.346;14.516;2022-09-09T01:58:10;279.07;;;143.97;;
8650;SDS011;4363;52.346;14.516;2022-09-09T02:00:38;265.53;;;140.93;;
8650;SDS011;4363;52.346;14.516;2022-09-09T02:03:22;268.50;;;145.30;;
8650;SDS011;4363;52.346;14.516;2022-09-09T02:13:37;218.50;;;126.63;;
8650;SDS011;4363;52.346;14.516;2022-09-09T02:16:07;252.13;;;144.93;;
8650;SDS011;4363;52.346;14.516;2022-09-09T02:18:45;213.70;;;131.60;;
8650;SDS011;4363;52.346;14.516;2022-09-09T02:21:14;240.30;;;140.83;;
8650;SDS011;4363;52.346;14.516;2022-09-09T02:23:41;292.40;;;152.40;;
8650;SDS011;4363;52.346;14.516;2022-09-09T02:26:08;277.53;;;149.47;;
8650;SDS011;4363;52.346;14.516;2022-09-09T02:28:36;192.07;;;119.20;;
8650;SDS011;4363;52.346;14.516;2022-09-09T02:31:03;179.93;;;116.30;;
8650;SDS011;4363;52.346;14.516;2022-09-09T02:33:30;194.10;;;118.03;;
8650;SDS011;4363;52.346;14.516;2022-09-09T02:35:59;194.30;;;119.57;;
8650;SDS011;4363;52.346;14.516;2022-09-09T02:38:28;156.10;;;109.00;;
8650;SDS011;4363;52.346;14.516;2022-09-09T02:40:55;156.03;;;109.37;;
8650;SDS011;4363;52.346;14.516;2022-09-09T02:43:21;178.93;;;115.03;;
8650;SDS011;4363;52.346;14.516;2022-09-09T02:45:58;189.27;;;118.80;;
8650;SDS011;4363;52.346;14.516;2022-09-09T02:48:34;185.03;;;116.47;;
8650;SDS011;4363;52.346;14.516;2022-09-09T02:53:33;209.57;;;123.50;;
8650;SDS011;4363;52.346;14.516;2022-09-09T02:56:04;176.13;;;112.27;;
8650;SDS011;4363;52.346;14.516;2022-09-09T02:58:31;152.00;;;105.97;;
8650;SDS011;4363;52.346;14.516;2022-09-09T03:00:57;177.57;;;118.47;;
8650;SDS011;4363;52.346;14.516;2022-09-09T03:03:26;187.80;;;117.27;;
8650;SDS011;4363;52.346;14.516;2022-09-09T03:05:52;176.33;;;112.20;;
8650;SDS011;4363;52.346;14.516;2022-09-09T03:08:18;176.40;;;113.50;;
8650;SDS011;4363;52.346;14.516;2022-09-09T03:10:44;158.43;;;108.60;;
8650;SDS011;4363;52.346;14.516;2022-09-09T03:13:09;171.80;;;111.20;;
8650;SDS011;4363;52.346;14.516;2022-09-09T03:15:37;179.83;;;114.73;;
8650;SDS011;4363;52.346;14.516;2022-09-09T03:18:03;171.13;;;112.33;;
8650;SDS011;4363;52.346;14.516;2022-09-09T03:20:30;194.13;;;122.30;;
8650;SDS011;4363;52.346;14.516;2022-09-09T03:22:56;181.83;;;116.90;;
8650;SDS011;4363;52.346;14.516;2022-09-09T03:25:22;167.73;;;113.83;;
8650;SDS011;4363;52.346;14.516;2022-09-09T03:27:49;158.80;;;106.93;;
8650;SDS011;4363;52.346;14.516;2022-09-09T03:30:15;151.10;;;107.00;;
8650;SDS011;4363;52.346;14.516;2022-09-09T03:32:41;159.40;;;107.83;;
8650;SDS011;4363;52.346;14.516;2022-09-09T03:35:07;168.40;;;114.77;;
8650;SDS011;4363;52.346;14.516;2022-09-09T03:37:34;179.27;;;115.77;;
8650;SDS011;4363;52.346;14.516;2022-09-09T03:39:59;172.10;;;112.37;;
8650;SDS011;4363;52.346;14.516;2022-09-09T03:42:25;172.03;;;111.40;;
8650;SDS011;4363;52.346;14.516;2022-09-09T03:44:52;182.77;;;115.03;;
8650;SDS011;4363;52.346;14.516;2022-09-09T03:47:21;181.17;;;112.57;;
8650;SDS011;4363;52.346;14.516;2022-09-09T03:49:47;174.77;;;111.77;;
8650;SDS011;4363;52.346;14.516;2022-09-09T03:52:13;181.33;;;115.03;;
8650;SDS011;4363;52.346;14.516;2022-09-09T03:54:39;149.83;;;110.37;;
8650;SDS011;4363;52.346;14.516;2022-09-09T03:57:07;174.43;;;115.17;;
8650;SDS011;4363;52.346;14.516;2022-09-09T03:59:33;189.27;;;121.33;;
8650;SDS011;4363;52.346;14.516;2022-09-09T04:01:59;180.87;;;118.87;;
8650;SDS011;4363;52.346;14.516;2022-09-09T04:04:25;150.20;;;110.37;;
8650;SDS011;4363;52.346;14.516;2022-09-09T04:06:52;179.27;;;117.37;;
8650;SDS011;4363;52.346;14.516;2022-09-09T04:09:18;185.00;;;120.90;;
8650;SDS011;4363;52.346;14.516;2022-09-09T04:11:44;174.93;;;113.70;;
8650;SDS011;4363;52.346;14.516;2022-09-09T04:14:11;174.33;;;117.10;;
8650;SDS011;4363;52.346;14.516;2022-09-09T04:16:37;172.70;;;113.23;;
8650;SDS011;4363;52.346;14.516;2022-09-09T04:19:04;140.50;;;105.37;;
8650;SDS011;4363;52.346;14.516;2022-09-09T04:21:31;167.73;;;114.10;;
8650;SDS011;4363;52.346;14.516;2022-09-09T04:23:57;168.87;;;117.37;;
8650;SDS011;4363;52.346;14.516;2022-09-09T04:26:23;177.07;;;119.10;;
8650;SDS011;4363;52.346;14.516;2022-09-09T04:28:49;171.80;;;118.07;;
8650;SDS011;4363;52.346;14.516;2022-09-09T04:31:17;184.73;;;119.80;;
8650;SDS011;4363;52.346;14.516;2022-09-09T04:33:43;184.13;;;124.37;;
8650;SDS011;4363;52.346;14.516;2022-09-09T04:36:09;154.30;;;112.07;;
8650;SDS011;4363;52.346;14.516;2022-09-09T04:38:35;172.27;;;116.17;;
8650;SDS011;4363;52.346;14.516;2022-09-09T04:41:01;176.53;;;118.27;;
8650;SDS011;4363;52.346;14.516;2022-09-09T04:43:27;180.10;;;116.33;;
8650;SDS011;4363;52.346;14.516;2022-09-09T04:45:55;205.20;;;126.90;;
8650;SDS011;4363;52.346;14.516;2022-09-09T04:48:21;197.43;;;123.70;;
8650;SDS011;4363;52.346;14.516;2022-09-09T04:50:57;180.67;;;117.13;;
8650;SDS011;4363;52.346;14.516;2022-09-09T04:53:23;180.70;;;118.87;;
8650;SDS011;4363;52.346;14.516;2022-09-09T04:55:50;210.47;;;131.13;;
8650;SDS011;4363;52.346;14.516;2022-09-09T04:58:16;191.03;;;125.23;;
8650;SDS011;4363;52.346;14.516;2022-09-09T05:00:43;219.60;;;154.20;;
8650;SDS011;4363;52.346;14.516;2022-09-09T05:03:09;149.47;;;110.37;;
8650;SDS011;4363;52.346;14.516;2022-09-09T05:05:35;189.73;;;125.40;;
8650;SDS011;4363;52.346;14.516;2022-09-09T05:08:04;190.80;;;125.10;;
8650;SDS011;4363;52.346;14.516;2022-09-09T05:10:31;211.37;;;130.93;;
8650;SDS011;4363;52.346;14.516;2022-09-09T05:12:57;198.07;;;124.50;;
8650;SDS011;4363;52.346;14.516;2022-09-09T05:15:23;191.87;;;126.07;;
8650;SDS011;4363;52.346;14.516;2022-09-09T05:17:49;218.73;;;131.87;;
8650;SDS011;4363;52.346;14.516;2022-09-09T05:20:17;202.27;;;127.63;;
8650;SDS011;4363;52.346;14.516;2022-09-09T05:22:43;196.63;;;125.17;;
8650;SDS011;4363;52.346;14.516;2022-09-09T05:25:09;181.23;;;121.53;;
8650;SDS011;4363;52.346;14.516;2022-09-09T05:27:35;195.07;;;125.53;;
8650;SDS011;4363;52.346;14.516;2022-09-09T05:30:01;266.53;;;149.50;;
8650;SDS011;4363;52.346;14.516;2022-09-09T05:32:29;209.93;;;129.53;;
8650;SDS011;4363;52.346;14.516;2022-09-09T05:34:57;203.67;;;123.47;;
8650;SDS011;4363;52.346;14.516;2022-09-09T05:37:23;193.23;;;124.03;;
8650;SDS011;4363;52.346;14.516;2022-09-09T05:39:50;206.33;;;127.27;;
8650;SDS011;4363;52.346;14.516;2022-09-09T05:42:16;224.17;;;131.67;;
8650;SDS011;4363;52.346;14.516;2022-09-09T05:44:42;193.27;;;123.77;;
8650;SDS011;4363;52.346;14.516;2022-09-09T05:47:09;214.77;;;131.27;;
8650;SDS011;4363;52.346;14.516;2022-09-09T05:49:36;174.40;;;120.10;;
8650;SDS011;4363;52.346;14.516;2022-09-09T05:52:02;195.53;;;126.57;;
8650;SDS011;4363;52.346;14.516;2022-09-09T05:54:28;191.53;;;124.73;;
8650;SDS011;4363;52.346;14.516;2022-09-09T05:56:55;204.37;;;132.60;;
8650;SDS011;4363;52.346;14.516;2022-09-09T05:59:20;217.37;;;134.00;;
8650;SDS011;4363;52.346;14.516;2022-09-09T06:01:48;222.50;;;135.53;;
8650;SDS011;4363;52.346;14.516;2022-09-09T06:04:14;225.70;;;138.20;;
8650;SDS011;4363;52.346;14.516;2022-09-09T06:06:40;193.67;;;118.50;;
8650;SDS011;4363;52.346;14.516;2022-09-09T06:09:07;216.43;;;133.00;;
8650;SDS011;4363;52.346;14.516;2022-09-09T06:11:38;217.87;;;133.97;;
8650;SDS011;4363;52.346;14.516;2022-09-09T06:14:05;207.60;;;132.53;;
8650;SDS011;4363;52.346;14.516;2022-09-09T06:16:31;239.93;;;142.97;;
8650;SDS011;4363;52.346;14.516;2022-09-09T06:18:57;220.03;;;134.50;;
8650;SDS011;4363;52.346;14.516;2022-09-09T06:23:50;211.27;;;134.80;;
8650;SDS011;4363;52.346;14.516;2022-09-09T06:26:19;249.07;;;144.10;;
8650;SDS011;4363;52.346;14.516;2022-09-09T06:28:45;227.77;;;139.43;;
8650;SDS011;4363;52.346;14.516;2022-09-09T06:31:13;223.90;;;138.40;;
8650;SDS011;4363;52.346;14.516;2022-09-09T06:33:39;225.83;;;139.63;;
8650;SDS011;4363;52.346;14.516;2022-09-09T06:36:07;229.73;;;139.93;;
8650;SDS011;4363;52.346;14.516;2022-09-09T06:38:33;239.33;;;142.97;;
8650;SDS011;4363;52.346;14.516;2022-09-09T06:40:59;199.50;;;131.80;;
8650;SDS011;4363;52.346;14.516;2022-09-09T06:43:26;204.03;;;129.83;;
8650;SDS011;4363;52.346;14.516;2022-09-09T06:45:58;234.60;;;140.53;;
8650;SDS011;4363;52.346;14.516;2022-09-09T06:48:25;244.93;;;144.87;;
8650;SDS011;4363;52.346;14.516;2022-09-09T06:53:33;235.13;;;140.47;;
8650;SDS011;4363;52.346;14.516;2022-09-09T06:56:03;226.97;;;139.87;;
8650;SDS011;4363;52.346;14.516;2022-09-09T06:58:42;222.13;;;133.10;;
8650;SDS011;4363;52.346;14.516;2022-09-09T07:01:09;231.33;;;135.97;;
8650;SDS011;4363;52.346;14.516;2022-09-09T07:03:37;223.63;;;131.77;;
8650;SDS011;4363;52.346;14.516;2022-09-09T07:06:03;257.33;;;146.73;;
8650;SDS011;4363;52.346;14.516;2022-09-09T07:08:29;250.07;;;143.43;;
8650;SDS011;4363;52.346;14.516;2022-09-09T07:11:01;300.87;;;165.17;;
8650;SDS011;4363;52.346;14.516;2022-09-09T07:13:27;274.77;;;159.80;;
8650;SDS011;4363;52.346;14.516;2022-09-09T07:15:53;272.73;;;162.80;;
8650;SDS011;4363;52.346;14.516;2022-09-09T07:18:19;336.87;;;190.33;;
8650;SDS011;4363;52.346;14.516;2022-09-09T07:20:55;310.53;;;179.17;;
8650;SDS011;4363;52.346;14.516;2022-09-09T07:23:21;335.43;;;189.80;;
8650;SDS011;4363;52.346;14.516;2022-09-09T07:25:47;281.63;;;156.73;;
8650;SDS011;4363;52.346;14.516;2022-09-09T07:28:14;352.97;;;195.17;;
8650;SDS011;4363;52.346;14.516;2022-09-09T07:30:40;315.63;;;176.63;;
8650;SDS011;4363;52.346;14.516;2022-09-09T07:33:07;373.67;;;203.77;;
8650;SDS011;4363;52.346;14.516;2022-09-09T07:35:34;324.40;;;173.90;;
8650;SDS011;4363;52.346;14.516;2022-09-09T07:38:02;312.85;;;179.38;;
8650;SDS011;4363;52.346;14.516;2022-09-09T07:40:31;342.90;;;193.17;;
8650;SDS011;4363;52.346;14.516;2022-09-09T07:42:57;345.73;;;195.60;;
8650;SDS011;4363;52.346;14.516;2022-09-09T07:45:24;340.83;;;200.33;;
8650;SDS011;4363;52.346;14.516;2022-09-09T07:47:50;323.73;;;187.20;;
8650;SDS011;4363;52.346;14.516;2022-09-09T07:50:17;333.10;;;193.20;;
8650;SDS011;4363;52.346;14.516;2022-09-09T07:52:43;295.83;;;184.87;;
8650;SDS011;4363;52.346;14.516;2022-09-09T07:55:09;303.63;;;171.67;;
8650;SDS011;4363;52.346;14.516;2022-09-09T07:57:35;317.80;;;187.68;;
8650;SDS011;4363;52.346;14.516;2022-09-09T08:00:03;295.23;;;171.77;;
8650;SDS011;4363;52.346;14.516;2022-09-09T08:02:29;340.67;;;195.90;;
8650;SDS011;4363;52.346;14.516;2022-09-09T08:04:55;373.13;;;212.00;;
8650;SDS011;4363;52.346;14.516;2022-09-09T08:07:21;331.73;;;193.10;;
8650;SDS011;4363;52.346;14.516;2022-09-09T08:09:48;326.30;;;184.48;;
8650;SDS011;4363;52.346;14.516;2022-09-09T08:12:14;330.23;;;194.38;;
8650;SDS011;4363;52.346;14.516;2022-09-09T08:14:40;311.45;;;187.07;;
8650;SDS011;4363;52.346;14.516;2022-09-09T08:17:06;317.83;;;196.68;;
8650;SDS011;4363;52.346;14.516;2022-09-09T08:19:32;344.17;;;210.30;;
8650;SDS011;4363;52.346;14.516;2022-09-09T08:22:00;323.45;;;200.85;;
8650;SDS011;4363;52.346;14.516;2022-09-09T08:24:27;333.90;;;206.55;;
8650;SDS011;4363;52.346;14.516;2022-09-09T08:26:53;401.98;;;231.77;;
8650;SDS011;4363;52.346;14.516;2022-09-09T08:29:19;318.98;;;188.95;;
8650;SDS011;4363;52.346;14.516;2022-09-09T08:31:54;334.63;;;193.85;;
8650;SDS011;4363;52.346;14.516;2022-09-09T08:34:22;386.92;;;220.15;;
8650;SDS011;4363;52.346;14.516;2022-09-09T08:36:48;299.80;;;182.55;;
8650;SDS011;4363;52.346;14.516;2022-09-09T08:39:16;402.30;;;220.25;;
8650;SDS011;4363;52.346;14.516;2022-09-09T08:47:02;335.85;;;193.43;;
8650;SDS011;4363;52.346;14.516;2022-09-09T08:50:30;359.23;;;208.35;;
8650;SDS011;4363;52.346;14.516;2022-09-09T08:54:50;512.95;;;268.27;;
8650;SDS011;4363;52.346;14.516;2022-09-09T08:57:19;385.55;;;229.00;;
8650;SDS011;4363;52.346;14.516;2022-09-09T08:59:45;296.88;;;190.27;;
8650;SDS011;4363;52.346;14.516;2022-09-09T09:05:09;287.05;;;191.68;;
8650;SDS011;4363;52.346;14.516;2022-09-09T09:07:42;307.10;;;204.27;;
8650;SDS011;4363;52.346;14.516;2022-09-09T09:10:20;318.83;;;204.95;;
8650;SDS011;4363;52.346;14.516;2022-09-09T09:12:50;306.95;;;186.57;;
8650;SDS011;4363;52.346;14.516;2022-09-09T09:15:18;303.10;;;185.52;;
8650;SDS011;4363;52.346;14.516;2022-09-09T09:17:45;338.65;;;201.15;;
8650;SDS011;4363;52.346;14.516;2022-09-09T09:20:13;363.58;;;223.23;;
8650;SDS011;4363;52.346;14.516;2022-09-09T09:22:48;338.95;;;218.25;;
8650;SDS011;4363;52.346;14.516;2022-09-09T09:25:17;391.13;;;239.75;;
8650;SDS011;4363;52.346;14.516;2022-09-09T09:27:57;309.10;;;198.63;;
8650;SDS011;4363;52.346;14.516;2022-09-09T09:30:26;382.70;;;230.52;;
8650;SDS011;4363;52.346;14.516;2022-09-09T09:32:56;299.05;;;199.55;;
8650;SDS011;4363;52.346;14.516;2022-09-09T09:35:23;349.10;;;209.88;;
8650;SDS011;4363;52.346;14.516;2022-09-09T09:37:50;326.85;;;210.15;;
8650;SDS011;4363;52.346;14.516;2022-09-09T09:40:16;380.17;;;235.25;;
8650;SDS011;4363;52.346;14.516;2022-09-09T09:43:01;400.42;;;233.63;;
8650;SDS011;4363;52.346;14.516;2022-09-09T09:45:34;341.58;;;212.13;;
8650;SDS011;4363;52.346;14.516;2022-09-09T09:48:04;370.65;;;225.70;;
8650;SDS011;4363;52.346;14.516;2022-09-09T09:50:31;379.38;;;231.05;;
8650;SDS011;4363;52.346;14.516;2022-09-09T09:52:59;381.27;;;229.80;;
8650;SDS011;4363;52.346;14.516;2022-09-09T09:55:26;373.90;;;229.48;;
8650;SDS011;4363;52.346;14.516;2022-09-09T09:57:54;398.40;;;235.20;;
8650;SDS011;4363;52.346;14.516;2022-09-09T10:00:25;361.10;;;222.85;;
8650;SDS011;4363;52.346;14.516;2022-09-09T10:02:51;372.17;;;228.05;;
8650;SDS011;4363;52.346;14.516;2022-09-09T10:05:19;409.73;;;236.68;;
8650;SDS011;4363;52.346;14.516;2022-09-09T10:07:46;360.92;;;219.35;;
8650;SDS011;4363;52.346;14.516;2022-09-09T10:10:19;422.67;;;239.80;;
8650;SDS011;4363;52.346;14.516;2022-09-09T10:12:53;428.85;;;243.85;;
8650;SDS011;4363;52.346;14.516;2022-09-09T10:18:15;401.77;;;237.95;;
8650;SDS011;4363;52.346;14.516;2022-09-09T10:31:16;429.63;;;246.10;;
8650;SDS011;4363;52.346;14.516;2022-09-09T10:34:08;382.85;;;240.45;;
8650;SDS011;4363;52.346;14.516;2022-09-09T10:36:37;388.83;;;243.57;;
8650;SDS011;4363;52.346;14.516;2022-09-09T10:39:06;401.77;;;244.93;;
8650;SDS011;4363;52.346;14.516;2022-09-09T10:46:45;353.88;;;221.98;;
8650;SDS011;4363;52.346;14.516;2022-09-09T10:52:01;380.67;;;234.57;;
8650;SDS011;4363;52.346;14.516;2022-09-09T10:54:43;374.27;;;227.55;;
8650;SDS011;4363;52.346;14.516;2022-09-09T10:57:36;373.85;;;233.27;;
8650;SDS011;4363;52.346;14.516;2022-09-09T11:00:03;381.00;;;241.13;;
8650;SDS011;4363;52.346;14.516;2022-09-09T11:02:31;367.00;;;231.98;;
8650;SDS011;4363;52.346;14.516;2022-09-09T11:05:02;393.45;;;244.52;;
8650;SDS011;4363;52.346;14.516;2022-09-09T11:07:32;419.17;;;257.63;;
8650;SDS011;4363;52.346;14.516;2022-09-09T11:10:01;413.38;;;253.07;;
8650;SDS011;4363;52.346;14.516;2022-09-09T11:12:27;437.30;;;264.52;;
8650;SDS011;4363;52.346;14.516;2022-09-09T11:15:06;378.27;;;238.82;;
8650;SDS011;4363;52.346;14.516;2022-09-09T11:17:35;399.33;;;245.95;;
8650;SDS011;4363;52.346;14.516;2022-09-09T11:20:03;392.25;;;243.43;;
8650;SDS011;4363;52.346;14.516;2022-09-09T11:22:35;402.13;;;248.13;;
8650;SDS011;4363;52.346;14.516;2022-09-09T11:30:29;359.08;;;231.23;;
8650;SDS011;4363;52.346;14.516;2022-09-09T11:41:09;404.60;;;257.05;;
8650;SDS011;4363;52.346;14.516;2022-09-09T11:43:39;365.73;;;234.88;;
8650;SDS011;4363;52.346;14.516;2022-09-09T11:46:06;378.52;;;245.90;;
8650;SDS011;4363;52.346;14.516;2022-09-09T11:48:39;365.02;;;237.35;;
8650;SDS011;4363;52.346;14.516;2022-09-09T11:51:24;340.10;;;225.75;;
8650;SDS011;4363;52.346;14.516;2022-09-09T11:56:24;389.30;;;248.85;;
8650;SDS011;4363;52.346;14.516;2022-09-09T11:58:58;390.95;;;253.02;;
8650;SDS011;4363;52.346;14.516;2022-09-09T12:04:38;371.55;;;243.98;;
8650;SDS011;4363;52.346;14.516;2022-09-09T12:06:54;372.00;;;247.82;;
8650;SDS011;4363;52.346;14.516;2022-09-09T12:11:48;531.90;;;311.90;;
8650;SDS011;4363;52.346;14.516;2022-09-09T12:17:08;436.42;;;286.23;;
8650;SDS011;4363;52.346;14.516;2022-09-09T12:19:34;395.10;;;267.42;;
8650;SDS011;4363;52.346;14.516;2022-09-09T12:22:03;402.75;;;258.23;;
8650;SDS011;4363;52.346;14.516;2022-09-09T12:24:39;379.13;;;256.02;;
8650;SDS011;4363;52.346;14.516;2022-09-09T12:27:13;390.88;;;254.35;;
8650;SDS011;4363;52.346;14.516;2022-09-09T12:29:44;391.92;;;257.02;;
8650;SDS011;4363;52.346;14.516;2022-09-09T12:32:19;397.08;;;261.80;;
8650;SDS011;4363;52.346;14.516;2022-09-09T12:34:53;382.77;;;257.40;;
8650;SDS011;4363;52.346;14.516;2022-09-09T12:37:33;371.70;;;250.48;;
8650;SDS011;4363;52.346;14.516;2022-09-09T12:40:01;400.67;;;269.98;;
8650;SDS011;4363;52.346;14.516;2022-09-09T12:42:28;436.30;;;281.33;;
8650;SDS011;4363;52.346;14.516;2022-09-09T12:44:58;367.27;;;241.00;;
8650;SDS011;4363;52.346;14.516;2022-09-09T12:47:38;376.60;;;248.45;;
8650;SDS011;4363;52.346;14.516;2022-09-09T12:50:14;423.00;;;270.70;;
8650;SDS011;4363;52.346;14.516;2022-09-09T12:52:41;376.27;;;247.38;;
8650;SDS011;4363;52.346;14.516;2022-09-09T12:55:07;409.65;;;259.30;;
8650;SDS011;4363;52.346;14.516;2022-09-09T12:57:41;393.55;;;257.45;;
8650;SDS011;4363;52.346;14.516;2022-09-09T13:00:15;460.25;;;287.75;;
8650;SDS011;4363;52.346;14.516;2022-09-09T13:02:49;412.35;;;265.67;;
8650;SDS011;4363;52.346;14.516;2022-09-09T13:05:20;417.98;;;269.52;;
8650;SDS011;4363;52.346;14.516;2022-09-09T13:07:46;412.40;;;271.80;;
8650;SDS011;4363;52.346;14.516;2022-09-09T13:10:13;397.60;;;262.92;;
8650;SDS011;4363;52.346;14.516;2022-09-09T13:12:40;479.67;;;301.15;;
8650;SDS011;4363;52.346;14.516;2022-09-09T13:15:10;428.80;;;281.92;;
8650;SDS011;4363;52.346;14.516;2022-09-09T13:17:38;494.70;;;306.60;;
8650;SDS011;4363;52.346;14.516;2022-09-09T13:20:05;427.42;;;287.27;;
8650;SDS011;4363;52.346;14.516;2022-09-09T13:22:35;437.65;;;295.50;;
8650;SDS011;4363;52.346;14.516;2022-09-09T13:25:06;450.33;;;292.38;;
8650;SDS011;4363;52.346;14.516;2022-09-09T13:27:33;419.45;;;279.90;;
8650;SDS011;4363;52.346;14.516;2022-09-09T13:30:00;410.55;;;273.00;;
8650;SDS011;4363;52.346;14.516;2022-09-09T13:32:27;406.63;;;281.38;;
8650;SDS011;4363;52.346;14.516;2022-09-09T13:34:54;421.33;;;293.88;;
8650;SDS011;4363;52.346;14.516;2022-09-09T13:37:22;391.15;;;292.17;;
8650;SDS011;4363;52.346;14.516;2022-09-09T13:39:51;401.92;;;294.25;;
8650;SDS011;4363;52.346;14.516;2022-09-09T13:42:28;432.77;;;303.15;;
8650;SDS011;4363;52.346;14.516;2022-09-09T13:44:55;457.52;;;314.85;;
8650;SDS011;4363;52.346;14.516;2022-09-09T13:47:22;415.63;;;304.75;;
8650;SDS011;4363;52.346;14.516;2022-09-09T13:49:52;424.52;;;319.02;;
8650;SDS011;4363;52.346;14.516;2022-09-09T13:52:19;418.10;;;307.85;;
8650;SDS011;4363;52.346;14.516;2022-09-09T13:54:47;435.27;;;318.77;;
8650;SDS011;4363;52.346;14.516;2022-09-09T13:57:18;505.55;;;334.63;;
8650;SDS011;4363;52.346;14.516;2022-09-09T13:59:45;416.42;;;293.63;;
8650;SDS011;4363;52.346;14.516;2022-09-09T14:02:11;431.45;;;297.50;;
8650;SDS011;4363;52.346;14.516;2022-09-09T14:04:37;437.83;;;292.73;;
8650;SDS011;4363;52.346;14.516;2022-09-09T14:07:06;445.00;;;287.45;;
8650;SDS011;4363;52.346;14.516;2022-09-09T14:09:33;424.95;;;279.98;;
8650;SDS011;4363;52.346;14.516;2022-09-09T14:11:59;403.63;;;274.05;;
8650;SDS011;4363;52.346;14.516;2022-09-09T14:14:25;381.35;;;247.05;;
8650;SDS011;4363;52.346;14.516;2022-09-09T14:16:51;387.23;;;252.15;;
8650;SDS011;4363;52.346;14.516;2022-09-09T14:19:17;426.35;;;270.25;;
8650;SDS011;4363;52.346;14.516;2022-09-09T14:21:43;382.73;;;247.43;;
8650;SDS011;4363;52.346;14.516;2022-09-09T14:24:09;440.88;;;273.67;;
8650;SDS011;4363;52.346;14.516;2022-09-09T14:26:35;504.38;;;301.00;;
8650;SDS011;4363;52.346;14.516;2022-09-09T14:29:02;406.20;;;261.40;;
8650;SDS011;4363;52.346;14.516;2022-09-09T14:31:28;392.75;;;249.85;;
8650;SDS011;4363;52.346;14.516;2022-09-09T14:33:54;378.08;;;239.90;;
8650;SDS011;4363;52.346;14.516;2022-09-09T14:36:20;382.05;;;242.35;;
8650;SDS011;4363;52.346;14.516;2022-09-09T14:38:47;418.52;;;253.63;;
8650;SDS011;4363;52.346;14.516;2022-09-09T14:41:15;394.23;;;240.30;;
8650;SDS011;4363;52.346;14.516;2022-09-09T14:43:45;416.83;;;249.15;;
8650;SDS011;4363;52.346;14.516;2022-09-09T14:46:12;390.30;;;239.45;;
8650;SDS011;4363;52.346;14.516;2022-09-09T14:48:38;527.97;;;315.10;;
8650;SDS011;4363;52.346;14.516;2022-09-09T14:51:06;404.10;;;246.00;;
8650;SDS011;4363;52.346;14.516;2022-09-09T14:53:32;401.35;;;260.85;;
8650;SDS011;4363;52.346;14.516;2022-09-09T14:56:08;431.02;;;272.00;;
8650;SDS011;4363;52.346;14.516;2022-09-09T14:58:35;419.52;;;252.40;;
8650;SDS011;4363;52.346;14.516;2022-09-09T15:01:11;376.45;;;234.00;;
8650;SDS011;4363;52.346;14.516;2022-09-09T15:03:38;386.55;;;251.30;;
8650;SDS011;4363;52.346;14.516;2022-09-09T15:06:05;388.45;;;240.63;;
8650;SDS011;4363;52.346;14.516;2022-09-09T15:08:31;393.17;;;254.82;;
8650;SDS011;4363;52.346;14.516;2022-09-09T15:11:04;408.10;;;248.43;;
8650;SDS011;4363;52.346;14.516;2022-09-09T15:13:32;441.25;;;274.02;;
8650;SDS011;4363;52.346;14.516;2022-09-09T15:16:04;370.15;;;249.82;;
8650;SDS011;4363;52.346;14.516;2022-09-09T15:18:31;415.35;;;261.92;;
8650;SDS011;4363;52.346;14.516;2022-09-09T15:20:58;370.10;;;234.02;;
8650;SDS011;4363;52.346;14.516;2022-09-09T15:23:25;390.10;;;253.27;;
8650;SDS011;4363;52.346;14.516;2022-09-09T15:25:54;385.77;;;252.75;;
8650;SDS011;4363;52.346;14.516;2022-09-09T15:28:21;376.55;;;255.45;;
8650;SDS011;4363;52.346;14.516;2022-09-09T15:30:50;375.15;;;234.05;;
8650;SDS011;4363;52.346;14.516;2022-09-09T15:33:17;397.95;;;244.25;;
8650;SDS011;4363;52.346;14.516;2022-09-09T15:35:44;445.85;;;278.42;;
8650;SDS011;4363;52.346;14.516;2022-09-09T15:38:10;375.75;;;247.88;;
8650;SDS011;4363;52.346;14.516;2022-09-09T15:40:38;380.20;;;250.07;;
8650;SDS011;4363;52.346;14.516;2022-09-09T15:43:04;451.58;;;278.38;;
8650;SDS011;4363;52.346;14.516;2022-09-09T15:45:31;403.52;;;260.10;;
8650;SDS011;4363;52.346;14.516;2022-09-09T15:47:58;418.33;;;280.38;;
8650;SDS011;4363;52.346;14.516;2022-09-09T15:50:24;464.88;;;300.30;;
8650;SDS011;4363;52.346;14.516;2022-09-09T15:52:51;401.55;;;272.67;;